createdAt,value
2018-07-21T00:00:21.099Z,88.43
2018-07-21T00:01:21.104Z,88.12
2018-07-21T00:02:21.118Z,86.85
2018-07-21T00:03:21.063Z,88.53
2018-07-21T00:04:21.056Z,89.13
2018-07-21T00:05:21.043Z,88.02
2018-07-21T00:06:21.049Z,88.63
2018-07-21T00:07:21.019Z,86.30
2018-07-21T00:08:21.009Z,88.93
2018-07-21T00:09:20.998Z,88.83
2018-07-21T00:10:20.989Z,87.82
2018-07-21T00:11:21.000Z,86.61
2018-07-21T00:12:20.974Z,87.82
2018-07-21T00:13:20.958Z,88.63
2018-07-21T00:14:20.951Z,87.32
2018-07-21T00:15:20.932Z,88.02
2018-07-21T00:16:20.942Z,88.53
2018-07-21T00:17:20.916Z,84.75
2018-07-21T00:18:20.905Z,85.76
2018-07-21T00:19:20.896Z,86.51
2018-07-21T00:20:20.879Z,84.25
2018-07-21T00:21:20.889Z,85.46
2018-07-21T00:22:20.862Z,85.05
2018-07-21T00:23:20.861Z,81.73
2018-07-21T00:24:20.843Z,82.23
2018-07-21T00:25:20.832Z,81.79
2018-07-21T00:26:20.836Z,79.97
2018-07-21T00:27:20.804Z,80.33
2018-07-21T00:28:20.795Z,78.83
2018-07-21T00:29:20.816Z,80.04
2018-07-21T00:30:20.777Z,81.24
2018-07-21T00:31:20.800Z,76.77
2018-07-21T00:32:20.761Z,79.60
2018-07-21T00:33:20.746Z,77.78
2018-07-21T00:34:20.732Z,77.17
2018-07-21T00:35:20.719Z,75.16
2018-07-21T00:36:20.738Z,77.68
2018-07-21T00:37:20.705Z,79.69
2018-07-21T00:38:20.691Z,79.43
2018-07-21T00:39:20.676Z,81.65
2018-07-21T00:40:20.666Z,81.85
2018-07-21T00:41:20.686Z,82.05
2018-07-21T00:42:20.649Z,83.46
2018-07-21T00:43:20.643Z,83.97
2018-07-21T00:44:20.635Z,82.76
2018-07-21T00:45:20.617Z,84.27
2018-07-21T00:46:20.624Z,85.42
2018-07-21T00:47:20.592Z,82.05
2018-07-21T00:48:20.581Z,82.59
2018-07-21T00:49:20.572Z,84.61
2018-07-21T00:50:20.565Z,85.42
2018-07-21T00:51:20.582Z,84.61
2018-07-21T00:52:20.541Z,84.61
2018-07-21T00:53:20.530Z,85.11
2018-07-21T00:54:20.524Z,83.40
2018-07-21T00:55:20.516Z,84.31
2018-07-21T00:56:20.521Z,85.92
2018-07-21T00:57:20.556Z,86.53
2018-07-21T00:58:20.477Z,80.98
2018-07-21T00:59:20.464Z,83.40
2018-07-21T01:00:20.461Z,80.07
2018-07-21T01:01:20.464Z,84.71
2018-07-21T01:02:20.455Z,82.39
2018-07-21T01:03:20.435Z,80.58
2018-07-21T01:04:20.433Z,79.77
2018-07-21T01:05:27.305Z,81.28
2018-07-21T01:06:20.415Z,79.36
2018-07-21T01:07:20.384Z,80.68
2018-07-21T01:08:20.390Z,79.57
2018-07-21T01:09:20.357Z,81.99
2018-07-21T01:10:20.362Z,81.85
2018-07-21T01:11:20.343Z,82.35
2018-07-21T01:12:20.330Z,83.70
2018-07-21T01:13:20.350Z,82.39
2018-07-21T01:14:20.304Z,83.80
2018-07-21T01:15:20.296Z,83.10
2018-07-21T01:16:20.297Z,84.01
2018-07-21T01:17:20.272Z,84.71
2018-07-21T01:18:20.299Z,85.11
2018-07-21T01:19:20.280Z,83.00
2018-07-21T01:20:20.245Z,81.59
2018-07-21T01:21:20.236Z,82.39
2018-07-21T01:22:20.219Z,83.60
2018-07-21T01:23:20.210Z,83.10
2018-07-21T01:24:20.228Z,84.01
2018-07-21T01:25:20.193Z,84.15
2018-07-21T01:26:20.176Z,83.34
2018-07-21T01:27:20.168Z,84.31
2018-07-21T01:28:20.158Z,83.14
2018-07-21T01:29:20.173Z,82.50
2018-07-21T01:30:20.141Z,81.82
2018-07-21T01:31:20.133Z,82.23
2018-07-21T01:32:20.119Z,82.23
2018-07-21T01:33:20.109Z,82.50
2018-07-21T01:34:20.091Z,85.25
2018-07-21T01:35:20.110Z,83.44
2018-07-21T01:36:20.072Z,83.64
2018-07-21T01:37:20.058Z,84.65
2018-07-21T01:38:20.071Z,85.66
2018-07-21T01:39:20.049Z,84.65
2018-07-21T01:40:20.029Z,84.35
2018-07-21T01:41:20.037Z,85.56
2018-07-21T01:42:20.012Z,86.36
2018-07-21T01:43:19.999Z,87.07
2018-07-21T01:44:19.987Z,84.75
2018-07-21T01:45:19.980Z,84.45
2018-07-21T01:46:20.000Z,85.66
2018-07-21T01:47:19.958Z,84.55
2018-07-21T01:48:19.961Z,84.55
2018-07-21T01:49:19.929Z,85.56
2018-07-21T01:50:19.926Z,86.36
2018-07-21T01:51:19.931Z,86.47
2018-07-21T01:52:19.903Z,86.36
2018-07-21T01:53:19.892Z,86.36
2018-07-21T01:54:19.878Z,86.57
2018-07-21T01:55:19.867Z,86.57
2018-07-21T01:56:19.888Z,87.07
2018-07-21T01:57:19.849Z,86.87
2018-07-21T01:58:19.832Z,85.16
2018-07-21T01:59:19.824Z,85.56
2018-07-21T02:00:19.814Z,84.75
2018-07-21T02:01:19.803Z,84.85
2018-07-21T02:02:19.824Z,83.04
2018-07-21T02:03:19.783Z,83.34
2018-07-21T02:04:19.774Z,82.53
2018-07-21T02:05:19.771Z,82.79
2018-07-21T02:06:19.747Z,83.60
2018-07-21T02:07:19.769Z,83.70
2018-07-21T02:08:19.729Z,84.11
2018-07-21T02:09:19.745Z,81.99
2018-07-21T02:10:19.714Z,83.10
2018-07-21T02:11:19.699Z,84.11
2018-07-21T02:12:19.713Z,85.52
2018-07-21T02:13:19.675Z,84.61
2018-07-21T02:14:19.669Z,84.81
2018-07-21T02:15:19.683Z,82.23
2018-07-21T02:16:19.653Z,82.33
2018-07-21T02:17:19.641Z,85.36
2018-07-21T02:18:19.647Z,83.44
2018-07-21T02:19:19.610Z,83.95
2018-07-21T02:20:19.607Z,85.50
2018-07-21T02:21:19.591Z,86.61
2018-07-21T02:22:19.583Z,87.12
2018-07-21T02:23:19.589Z,86.81
2018-07-21T02:24:19.561Z,87.32
2018-07-21T02:25:19.562Z,87.62
2018-07-21T02:26:19.539Z,88.37
2018-07-21T02:27:19.525Z,87.15
2018-07-21T02:28:19.537Z,86.75
2018-07-21T02:29:19.507Z,85.94
2018-07-21T02:30:19.490Z,87.21
2018-07-21T02:31:19.483Z,86.65
2018-07-21T02:32:19.472Z,86.55
2018-07-21T02:33:19.478Z,88.06
2018-07-21T02:34:19.454Z,87.36
2018-07-21T02:35:19.441Z,87.15
2018-07-21T02:36:19.436Z,87.05
2018-07-21T02:37:19.423Z,86.59
2018-07-21T02:38:19.430Z,87.40
2018-07-21T02:39:19.397Z,86.29
2018-07-21T02:40:19.386Z,86.99
2018-07-21T02:41:19.373Z,86.69
2018-07-21T02:42:19.368Z,86.83
2018-07-21T02:43:19.356Z,86.83
2018-07-21T02:44:19.364Z,86.83
2018-07-21T02:45:19.332Z,87.34
2018-07-21T02:46:19.325Z,87.74
2018-07-21T02:47:19.312Z,87.88
2018-07-21T02:48:19.303Z,87.88
2018-07-21T02:49:19.311Z,88.49
2018-07-21T02:50:19.275Z,88.64
2018-07-21T02:51:19.267Z,88.53
2018-07-21T02:52:19.255Z,87.02
2018-07-21T02:53:19.245Z,88.17
2018-07-21T02:54:19.280Z,87.97
2018-07-21T02:55:19.229Z,88.27
2018-07-21T02:56:19.215Z,86.76
2018-07-21T02:57:19.206Z,89.18
2018-07-21T02:58:19.188Z,89.18
2018-07-21T02:59:19.206Z,89.39
2018-07-21T03:00:19.172Z,89.59
2018-07-21T03:01:19.204Z,89.12
2018-07-21T03:02:19.145Z,89.53
2018-07-21T03:03:19.136Z,89.12
2018-07-21T03:04:19.129Z,89.02
2018-07-21T03:05:19.133Z,90.48
2018-07-21T03:06:19.118Z,90.18
2018-07-21T03:07:19.096Z,90.79
2018-07-21T03:08:19.085Z,91.50
2018-07-21T03:09:19.076Z,90.58
2018-07-21T03:10:19.077Z,90.69
2018-07-21T03:11:19.049Z,91.03
2018-07-21T03:12:19.045Z,91.74
2018-07-21T03:13:19.028Z,92.55
2018-07-21T03:14:19.026Z,93.10
2018-07-21T03:15:19.032Z,93.16
2018-07-21T03:16:18.998Z,92.90
2018-07-21T03:17:18.987Z,94.02
2018-07-21T03:18:18.979Z,93.97
2018-07-21T03:19:18.967Z,93.81
2018-07-21T03:20:18.974Z,93.81
2018-07-21T03:21:18.946Z,93.81
2018-07-21T03:22:18.929Z,93.30
2018-07-21T03:23:18.974Z,92.80
2018-07-21T03:24:18.928Z,93.10
2018-07-21T03:25:18.928Z,93.10
2018-07-21T03:26:18.885Z,93.00
2018-07-21T03:27:18.883Z,93.30
2018-07-21T03:28:18.896Z,93.21
2018-07-21T03:29:18.853Z,93.10
2018-07-21T03:30:18.868Z,92.70
2018-07-21T03:31:18.862Z,93.71
2018-07-21T03:32:18.852Z,93.25
2018-07-21T03:33:18.859Z,93.51
2018-07-21T03:34:18.805Z,92.19
2018-07-21T03:35:18.813Z,92.60
2018-07-21T03:36:18.790Z,93.15
2018-07-21T03:37:18.777Z,93.35
2018-07-21T03:38:18.756Z,94.06
2018-07-21T03:39:18.751Z,93.86
2018-07-21T03:40:18.768Z,94.37
2018-07-21T03:41:18.731Z,94.57
2018-07-21T03:42:18.729Z,94.17
2018-07-21T03:43:18.706Z,94.61
2018-07-21T03:44:18.704Z,94.61
2018-07-21T03:45:18.706Z,95.73
2018-07-21T03:46:18.689Z,95.94
2018-07-21T03:47:18.661Z,96.44
2018-07-21T03:48:18.654Z,96.54
2018-07-21T03:49:18.644Z,97.45
2018-07-21T03:50:18.647Z,97.15
2018-07-21T03:51:18.620Z,97.15
2018-07-21T03:52:18.615Z,97.05
2018-07-21T03:53:18.594Z,96.64
2018-07-21T03:54:18.591Z,96.14
2018-07-21T03:55:18.598Z,96.23
2018-07-21T03:56:18.577Z,96.03
2018-07-21T03:57:18.568Z,95.12
2018-07-21T03:58:18.545Z,95.32
2018-07-21T03:59:18.532Z,95.32
2018-07-21T04:00:18.541Z,95.58
2018-07-21T04:01:18.508Z,94.98
2018-07-21T04:02:18.505Z,94.77
2018-07-21T04:03:18.494Z,94.46
2018-07-21T04:04:18.479Z,94.46
2018-07-21T04:05:18.488Z,94.26
2018-07-21T04:06:18.461Z,94.06
2018-07-21T04:07:18.449Z,94.67
2018-07-21T04:08:18.437Z,94.06
2018-07-21T04:09:18.430Z,93.96
2018-07-21T04:10:18.440Z,94.21
2018-07-21T04:11:18.420Z,94.98
2018-07-21T04:12:18.394Z,94.21
2018-07-21T04:13:18.379Z,94.17
2018-07-21T04:14:18.377Z,95.28
2018-07-21T04:15:18.372Z,95.02
2018-07-21T04:16:18.384Z,95.73
2018-07-21T04:17:18.361Z,95.63
2018-07-21T04:18:18.331Z,95.42
2018-07-21T04:19:18.388Z,95.48
2018-07-21T04:20:18.309Z,96.03
2018-07-21T04:21:18.364Z,95.07
2018-07-21T04:22:18.283Z,94.98
2018-07-21T04:23:18.277Z,95.48
2018-07-21T04:24:18.290Z,95.79
2018-07-21T04:25:18.251Z,95.38
2018-07-21T04:26:18.265Z,95.28
2018-07-21T04:27:18.233Z,95.48
2018-07-21T04:28:18.223Z,94.98
2018-07-21T04:29:18.217Z,94.87
2018-07-21T04:30:18.207Z,95.38
2018-07-21T04:31:18.217Z,95.58
2018-07-21T04:32:18.181Z,93.96
2018-07-21T04:33:18.182Z,94.37
2018-07-21T04:34:18.180Z,94.22
2018-07-21T04:35:18.147Z,94.42
2018-07-21T04:36:18.153Z,95.03
2018-07-21T04:37:18.122Z,94.02
2018-07-21T04:38:18.146Z,93.96
2018-07-21T04:39:18.108Z,94.46
2018-07-21T04:40:18.094Z,94.87
2018-07-21T04:41:18.108Z,95.48
2018-07-21T04:42:18.087Z,95.38
2018-07-21T04:43:18.059Z,95.54
2018-07-21T04:44:18.051Z,95.58
2018-07-21T04:45:18.053Z,95.68
2018-07-21T04:46:18.075Z,95.48
2018-07-21T04:47:18.018Z,95.79
2018-07-21T04:48:18.011Z,96.19
2018-07-21T04:49:18.018Z,95.48
2018-07-21T04:50:17.983Z,96.09
2018-07-21T04:51:17.992Z,96.50
2018-07-21T04:52:17.964Z,96.60
2018-07-21T04:53:17.973Z,96.19
2018-07-21T04:54:17.937Z,96.30
2018-07-21T04:55:17.930Z,95.48
2018-07-21T04:56:17.937Z,95.48
2018-07-21T04:57:17.925Z,94.98
2018-07-21T04:58:17.920Z,94.98
2018-07-21T04:59:17.888Z,95.28
2018-07-21T05:00:17.888Z,94.98
2018-07-21T05:01:17.925Z,94.77
2018-07-21T05:02:17.851Z,94.77
2018-07-21T05:03:17.843Z,94.77
2018-07-21T05:04:17.832Z,95.18
2018-07-21T05:05:17.828Z,94.77
2018-07-21T05:06:17.850Z,95.18
2018-07-21T05:07:17.881Z,96.60
2018-07-21T05:08:17.790Z,96.39
2018-07-21T05:09:17.775Z,96.80
2018-07-21T05:10:17.771Z,97.16
2018-07-21T05:11:17.801Z,96.96
2018-07-21T05:12:17.756Z,97.41
2018-07-21T05:13:17.739Z,97.41
2018-07-21T05:14:17.721Z,97.41
2018-07-21T05:15:17.717Z,97.31
2018-07-21T05:16:17.727Z,97.11
2018-07-21T05:17:17.688Z,97.92
2018-07-21T05:18:17.685Z,97.20
2018-07-21T05:19:17.676Z,96.80
2018-07-21T05:20:17.669Z,97.20
2018-07-21T05:21:17.678Z,96.80
2018-07-21T05:22:17.644Z,96.70
2018-07-21T05:23:17.626Z,96.60
2018-07-21T05:24:17.627Z,97.47
2018-07-21T05:25:17.609Z,97.56
2018-07-21T05:26:17.612Z,97.51
2018-07-21T05:27:17.589Z,97.16
2018-07-21T05:28:17.572Z,98.18
2018-07-21T05:29:17.559Z,97.47
2018-07-21T05:30:17.561Z,98.07
2018-07-21T05:31:17.569Z,97.26
2018-07-21T05:32:17.532Z,97.02
2018-07-21T05:33:17.523Z,97.02
2018-07-21T05:34:17.516Z,97.11
2018-07-21T05:35:17.496Z,97.02
2018-07-21T05:36:17.531Z,96.10
2018-07-21T05:37:17.473Z,96.41
2018-07-21T05:38:17.473Z,96.30
2018-07-21T05:39:17.490Z,96.15
2018-07-21T05:40:17.477Z,96.15
2018-07-21T05:41:17.449Z,95.86
2018-07-21T05:42:17.436Z,96.36
2018-07-21T05:43:17.419Z,95.75
2018-07-21T05:44:17.404Z,95.04
2018-07-21T05:45:17.393Z,94.54
2018-07-21T05:46:17.394Z,95.04
2018-07-21T05:47:17.369Z,96.46
2018-07-21T05:48:17.356Z,94.84
2018-07-21T05:49:17.356Z,94.94
2018-07-21T05:50:17.366Z,94.94
2018-07-21T05:51:17.349Z,94.90
2018-07-21T05:52:17.342Z,95.91
2018-07-21T05:53:17.401Z,94.59
2018-07-21T05:54:17.293Z,93.48
2018-07-21T05:55:17.282Z,93.94
2018-07-21T05:56:17.295Z,92.93
2018-07-21T05:57:17.266Z,92.02
2018-07-21T05:58:17.244Z,92.32
2018-07-21T05:59:17.237Z,92.42
2018-07-21T06:00:17.226Z,93.74
2018-07-21T06:01:17.233Z,93.33
2018-07-21T06:02:17.223Z,92.83
2018-07-21T06:03:17.202Z,93.74
2018-07-21T06:04:17.185Z,93.70
2018-07-21T06:05:17.176Z,94.20
2018-07-21T06:06:17.177Z,94.04
2018-07-21T06:07:17.150Z,94.55
2018-07-21T06:08:17.149Z,94.35
2018-07-21T06:09:17.126Z,94.65
2018-07-21T06:10:17.121Z,94.65
2018-07-21T06:11:17.138Z,95.46
2018-07-21T06:12:17.108Z,95.15
2018-07-21T06:13:17.084Z,94.55
2018-07-21T06:14:17.084Z,95.15
2018-07-21T06:15:17.067Z,95.26
2018-07-21T06:16:17.074Z,96.27
2018-07-21T06:17:17.050Z,96.27
2018-07-21T06:18:17.033Z,96.27
2018-07-21T06:19:17.022Z,95.86
2018-07-21T06:20:17.015Z,96.07
2018-07-21T06:21:17.027Z,96.17
2018-07-21T06:22:16.991Z,95.82
2018-07-21T06:23:16.978Z,96.42
2018-07-21T06:24:16.987Z,96.02
2018-07-21T06:25:17.006Z,96.12
2018-07-21T06:26:16.945Z,96.12
2018-07-21T06:27:16.954Z,96.53
2018-07-21T06:28:16.925Z,94.91
2018-07-21T06:29:16.915Z,92.48
2018-07-21T06:30:16.905Z,92.84
2018-07-21T06:31:16.908Z,94.01
2018-07-21T06:32:16.913Z,93.10
2018-07-21T06:33:16.882Z,92.60
2018-07-21T06:34:16.862Z,92.55
2018-07-21T06:35:16.873Z,92.05
2018-07-21T06:36:16.879Z,87.60
2018-07-21T06:37:16.889Z,88.57
2018-07-21T06:38:16.816Z,88.47
2018-07-21T06:39:16.853Z,86.61
2018-07-21T06:40:16.795Z,84.15
2018-07-21T06:41:16.789Z,83.24
2018-07-21T06:42:16.795Z,84.51
2018-07-21T06:43:16.870Z,84.31
2018-07-21T06:44:16.756Z,82.50
2018-07-21T06:45:16.771Z,82.76
2018-07-21T06:46:16.737Z,83.16
2018-07-21T06:47:16.760Z,85.58
2018-07-21T06:48:16.712Z,83.76
2018-07-21T06:49:16.699Z,84.47
2018-07-21T06:50:16.681Z,82.71
2018-07-21T06:51:16.674Z,81.91
2018-07-21T06:52:16.682Z,82.42
2018-07-21T06:53:16.658Z,81.87
2018-07-21T06:54:16.662Z,82.78
2018-07-21T06:55:16.632Z,81.27
2018-07-21T06:56:16.635Z,81.98
2018-07-21T06:57:16.631Z,83.39
2018-07-21T06:58:16.603Z,84.25
2018-07-21T06:59:16.635Z,83.54
2018-07-21T07:00:16.575Z,83.34
2018-07-21T07:01:16.568Z,82.04
2018-07-21T07:02:16.569Z,82.34
2018-07-21T07:03:16.550Z,83.61
2018-07-21T07:04:16.537Z,83.51
2018-07-21T07:05:16.522Z,80.89
2018-07-21T07:06:16.538Z,80.39
2018-07-21T07:07:16.526Z,81.59
2018-07-21T07:08:16.497Z,79.38
2018-07-21T07:09:16.481Z,77.83
2018-07-21T07:10:16.537Z,77.53
2018-07-21T07:11:16.455Z,77.83
2018-07-21T07:12:16.463Z,79.00
2018-07-21T07:13:16.431Z,79.50
2018-07-21T07:14:16.431Z,80.21
2018-07-21T07:15:16.415Z,80.01
2018-07-21T07:16:16.421Z,76.25
2018-07-21T07:17:16.416Z,76.65
2018-07-21T07:18:16.393Z,77.52
2018-07-21T07:19:16.371Z,80.63
2018-07-21T07:20:16.360Z,78.53
2018-07-21T07:21:16.381Z,74.91
2018-07-21T07:22:16.334Z,77.19
2018-07-21T07:23:16.336Z,76.08
2018-07-21T07:24:16.315Z,76.34
2018-07-21T07:25:16.354Z,73.60
2018-07-21T07:26:16.353Z,74.80
2018-07-21T07:27:16.339Z,72.50
2018-07-21T07:28:16.275Z,71.96
2018-07-21T07:29:16.268Z,73.27
2018-07-21T07:30:16.250Z,74.77
2018-07-21T07:31:16.246Z,70.73
2018-07-21T07:32:16.259Z,73.63
2018-07-21T07:33:16.224Z,71.80
2018-07-21T07:34:16.209Z,72.89
2018-07-21T07:35:16.273Z,71.30
2018-07-21T07:36:16.186Z,72.26
2018-07-21T07:37:16.198Z,72.76
2018-07-21T07:38:16.180Z,69.16
2018-07-21T07:39:16.158Z,66.96
2018-07-21T07:40:16.155Z,68.16
2018-07-21T07:41:16.152Z,67.93
2018-07-21T07:42:16.234Z,72.09
2018-07-21T07:43:16.110Z,71.29
2018-07-21T07:44:16.106Z,67.22
2018-07-21T07:45:16.091Z,67.52
2018-07-21T07:46:16.091Z,66.42
2018-07-21T07:47:16.098Z,68.23
2018-07-21T07:48:16.084Z,70.59
2018-07-21T07:49:16.053Z,67.96
2018-07-21T07:50:16.052Z,71.46
2018-07-21T07:51:16.036Z,68.76
2018-07-21T07:52:16.046Z,65.16
2018-07-21T07:53:16.012Z,66.99
2018-07-21T07:54:15.999Z,67.69
2018-07-21T07:55:15.988Z,69.36
2018-07-21T07:56:15.975Z,69.86
2018-07-21T07:57:15.986Z,65.06
2018-07-21T07:58:15.959Z,65.56
2018-07-21T07:59:15.955Z,66.26
2018-07-21T08:00:15.942Z,66.86
2018-07-21T08:01:16.003Z,68.36
2018-07-21T08:02:15.943Z,66.76
2018-07-21T08:03:15.902Z,67.26
2018-07-21T08:04:15.905Z,67.96
2018-07-21T08:05:15.887Z,66.86
2018-07-21T08:06:15.885Z,65.33
2018-07-21T08:07:15.882Z,66.16
2018-07-21T08:08:15.857Z,66.26
2018-07-21T08:09:15.855Z,67.46
2018-07-21T08:10:15.834Z,67.19
2018-07-21T08:11:15.827Z,65.09
2018-07-21T08:12:15.842Z,64.66
2018-07-21T08:13:15.824Z,63.96
2018-07-21T08:14:15.817Z,63.83
2018-07-21T08:15:15.782Z,64.93
2018-07-21T08:16:15.770Z,63.93
2018-07-21T08:17:15.777Z,64.83
2018-07-21T08:18:15.766Z,63.93
2018-07-21T08:19:15.743Z,63.13
2018-07-21T08:20:15.732Z,62.20
2018-07-21T08:21:15.717Z,63.10
2018-07-21T08:22:15.729Z,66.09
2018-07-21T08:23:15.703Z,61.90
2018-07-21T08:24:15.695Z,64.80
2018-07-21T08:25:15.674Z,62.70
2018-07-21T08:26:15.665Z,62.90
2018-07-21T08:27:15.668Z,64.30
2018-07-21T08:28:15.642Z,65.30
2018-07-21T08:29:15.637Z,62.97
2018-07-21T08:30:15.637Z,62.77
2018-07-21T08:31:15.611Z,62.77
2018-07-21T08:32:15.618Z,62.97
2018-07-21T08:33:15.596Z,63.17
2018-07-21T08:34:15.578Z,65.47
2018-07-21T08:35:15.567Z,65.44
2018-07-21T08:36:15.559Z,64.01
2018-07-21T08:37:15.566Z,59.62
2018-07-21T08:38:15.533Z,64.61
2018-07-21T08:39:15.521Z,61.71
2018-07-21T08:40:15.513Z,58.62
2018-07-21T08:41:15.504Z,62.48
2018-07-21T08:42:15.513Z,59.77
2018-07-21T08:43:15.491Z,59.06
2018-07-21T08:44:15.480Z,58.27
2018-07-21T08:45:15.463Z,57.94
2018-07-21T08:46:15.450Z,57.24
2018-07-21T08:47:15.462Z,58.47
2018-07-21T08:48:15.428Z,60.96
2018-07-21T08:49:15.422Z,61.36
2018-07-21T08:50:15.432Z,60.29
2018-07-21T08:51:15.418Z,61.69
2018-07-21T08:52:15.403Z,59.52
2018-07-21T08:53:15.376Z,58.03
2018-07-21T08:54:15.368Z,61.02
2018-07-21T08:55:15.361Z,62.51
2018-07-21T08:56:15.365Z,59.62
2018-07-21T08:57:15.360Z,59.45
2018-07-21T08:58:15.325Z,59.95
2018-07-21T08:59:15.312Z,62.01
2018-07-21T09:00:15.308Z,65.23
2018-07-21T09:01:15.325Z,62.54
2018-07-21T09:02:15.347Z,60.85
2018-07-21T09:03:15.325Z,61.74
2018-07-21T09:04:15.265Z,60.97
2018-07-21T09:05:15.252Z,60.28
2018-07-21T09:06:15.242Z,63.94
2018-07-21T09:07:15.246Z,61.65
2018-07-21T09:08:15.225Z,61.71
2018-07-21T09:09:15.229Z,63.31
2018-07-21T09:10:15.199Z,60.79
2018-07-21T09:11:15.198Z,60.26
2018-07-21T09:12:15.205Z,61.83
2018-07-21T09:13:15.313Z,61.69
2018-07-21T09:14:15.159Z,58.51
2018-07-21T09:15:15.156Z,58.51
2018-07-21T09:16:15.140Z,59.81
2018-07-21T09:17:15.145Z,62.76
2018-07-21T09:18:15.115Z,62.16
2018-07-21T09:19:15.104Z,60.74
2018-07-21T09:20:15.100Z,57.96
2018-07-21T09:21:15.083Z,59.92
2018-07-21T09:22:15.103Z,56.77
2018-07-21T09:23:15.067Z,57.34
2018-07-21T09:24:15.050Z,56.27
2018-07-21T09:25:15.042Z,58.16
2018-07-21T09:26:15.042Z,58.06
2018-07-21T09:27:15.030Z,55.47
2018-07-21T09:28:15.100Z,56.79
2018-07-21T09:29:15.002Z,56.70
2018-07-21T09:30:15.000Z,59.85
2018-07-21T09:31:14.977Z,59.42
2018-07-21T09:32:14.965Z,55.44
2018-07-21T09:33:14.979Z,55.44
2018-07-21T09:34:14.955Z,56.61
2018-07-21T09:35:14.952Z,57.21
2018-07-21T09:36:14.932Z,58.80
2018-07-21T09:37:14.917Z,58.80
2018-07-21T09:38:14.924Z,57.87
2018-07-21T09:39:14.899Z,56.76
2018-07-21T09:40:14.892Z,56.26
2018-07-21T09:41:14.886Z,54.45
2018-07-21T09:42:14.865Z,55.64
2018-07-21T09:43:14.907Z,58.81
2018-07-21T09:44:14.840Z,54.72
2018-07-21T09:45:14.843Z,52.61
2018-07-21T09:46:14.854Z,52.22
2018-07-21T09:47:14.842Z,54.99
2018-07-21T09:48:14.816Z,53.31
2018-07-21T09:49:14.886Z,53.13
2018-07-21T09:50:14.815Z,53.03
2018-07-21T09:51:14.769Z,52.14
2018-07-21T09:52:14.766Z,51.94
2018-07-21T09:53:14.752Z,56.08
2018-07-21T09:54:14.764Z,56.45
2018-07-21T09:55:14.737Z,54.12
2018-07-21T09:56:14.721Z,50.81
2018-07-21T09:57:14.712Z,49.44
2018-07-21T09:58:14.703Z,50.04
2018-07-21T09:59:14.715Z,54.56
2018-07-21T10:00:14.688Z,50.12
2018-07-21T10:01:14.681Z,53.03
2018-07-21T10:02:14.663Z,54.52
2018-07-21T10:03:14.653Z,52.76
2018-07-21T10:04:14.670Z,51.87
2018-07-21T10:05:14.638Z,50.98
2018-07-21T10:06:14.622Z,53.97
2018-07-21T10:07:14.622Z,53.35
2018-07-21T10:08:14.605Z,51.60
2018-07-21T10:09:14.595Z,55.36
2018-07-21T10:10:14.609Z,54.30
2018-07-21T10:11:14.567Z,53.41
2018-07-21T10:12:14.564Z,53.50
2018-07-21T10:13:14.553Z,53.83
2018-07-21T10:14:14.545Z,55.02
2018-07-21T10:15:14.560Z,56.01
2018-07-21T10:16:14.526Z,53.80
2018-07-21T10:17:14.512Z,56.48
2018-07-21T10:18:14.504Z,55.39
2018-07-21T10:19:14.493Z,56.15
2018-07-21T10:20:14.503Z,56.85
2018-07-21T10:21:14.471Z,51.89
2018-07-21T10:22:14.534Z,51.70
2018-07-21T10:23:14.451Z,54.77
2018-07-21T10:24:14.436Z,58.73
2018-07-21T10:25:14.448Z,49.32
2018-07-21T10:26:14.422Z,49.40
2018-07-21T10:27:14.414Z,54.91
2018-07-21T10:28:14.527Z,50.26
2018-07-21T10:29:14.395Z,52.91
2018-07-21T10:30:14.475Z,47.86
2018-07-21T10:31:14.372Z,54.49
2018-07-21T10:32:14.366Z,49.57
2018-07-21T10:33:14.427Z,49.10
2018-07-21T10:34:14.336Z,50.58
2018-07-21T10:35:14.425Z,50.48
2018-07-21T10:36:14.316Z,55.30
2018-07-21T10:37:14.312Z,50.76
2018-07-21T10:38:14.369Z,51.25
2018-07-21T10:39:14.298Z,47.99
2018-07-21T10:40:14.322Z,53.92
2018-07-21T10:41:14.271Z,50.85
2018-07-21T10:42:14.259Z,53.06
2018-07-21T10:43:14.243Z,57.41
2018-07-21T10:44:14.251Z,51.07
2018-07-21T10:45:14.253Z,53.06
2018-07-21T10:46:14.216Z,53.95
2018-07-21T10:47:14.205Z,54.54
2018-07-21T10:48:14.197Z,55.24
2018-07-21T10:49:14.188Z,49.27
2018-07-21T10:50:14.204Z,52.83
2018-07-21T10:51:14.168Z,47.59
2018-07-21T10:52:14.159Z,49.47
2018-07-21T10:53:14.156Z,52.61
2018-07-21T10:54:14.134Z,49.72
2018-07-21T10:55:14.140Z,48.03
2018-07-21T10:56:14.111Z,47.94
2018-07-21T10:57:14.102Z,51.20
2018-07-21T10:58:14.106Z,55.13
2018-07-21T10:59:14.087Z,49.57
2018-07-21T11:00:14.126Z,45.89
2018-07-21T11:01:14.063Z,51.13
2018-07-21T11:02:14.054Z,48.36
2018-07-21T11:03:14.047Z,46.78
2018-07-21T11:04:14.043Z,47.77
2018-07-21T11:05:14.044Z,48.46
2018-07-21T11:06:14.009Z,49.05
2018-07-21T11:07:13.996Z,48.07
2018-07-21T11:08:13.991Z,45.32
2018-07-21T11:09:13.981Z,47.50
2018-07-21T11:10:13.988Z,46.81
2018-07-21T11:11:13.960Z,50.16
2018-07-21T11:12:13.958Z,47.99
2018-07-21T11:13:13.940Z,50.16
2018-07-21T11:14:13.926Z,53.59
2018-07-21T11:15:14.057Z,48.56
2018-07-21T11:16:13.909Z,53.50
2018-07-21T11:17:13.897Z,51.79
2018-07-21T11:18:13.885Z,45.40
2018-07-21T11:19:13.878Z,45.89
2018-07-21T11:20:13.902Z,47.18
2018-07-21T11:21:13.861Z,46.76
2018-07-21T11:22:13.849Z,47.50
2018-07-21T11:23:13.843Z,46.03
2018-07-21T11:24:13.831Z,47.70
2018-07-21T11:25:13.863Z,46.50
2018-07-21T11:26:13.809Z,43.93
2018-07-21T11:27:13.821Z,44.33
2018-07-21T11:28:13.787Z,43.15
2018-07-21T11:29:13.779Z,48.35
2018-07-21T11:30:13.794Z,43.20
2018-07-21T11:31:13.765Z,43.50
2018-07-21T11:32:13.756Z,43.01
2018-07-21T11:33:13.743Z,44.46
2018-07-21T11:34:13.739Z,43.97
2018-07-21T11:35:13.803Z,45.60
2018-07-21T11:36:13.927Z,43.51
2018-07-21T11:37:13.720Z,47.44
2018-07-21T11:38:13.695Z,43.02
2018-07-21T11:39:13.684Z,39.68
2018-07-21T11:40:13.712Z,45.60
2018-07-21T11:41:13.685Z,46.38
2018-07-21T11:42:13.675Z,41.09
2018-07-21T11:43:13.651Z,42.16
2018-07-21T11:44:13.649Z,43.36
2018-07-21T11:45:13.657Z,41.98
2018-07-21T11:46:13.626Z,41.29
2018-07-21T11:47:13.604Z,42.86
2018-07-21T11:48:13.603Z,40.31
2018-07-21T11:49:13.603Z,39.68
2018-07-21T11:50:13.599Z,42.21
2018-07-21T11:51:13.565Z,39.59
2018-07-21T11:52:13.558Z,40.68
2018-07-21T11:53:13.549Z,39.84
2018-07-21T11:54:13.542Z,41.21
2018-07-21T11:55:13.580Z,40.55
2018-07-21T11:56:13.522Z,42.63
2018-07-21T11:57:13.520Z,45.20
2018-07-21T11:58:13.497Z,38.92
2018-07-21T11:59:13.548Z,38.92
2018-07-21T12:00:13.506Z,41.09
2018-07-21T12:01:13.483Z,39.87
2018-07-21T12:02:13.466Z,41.94
2018-07-21T12:03:13.453Z,42.77
2018-07-21T12:04:13.443Z,43.27
2018-07-21T12:05:13.447Z,44.35
2018-07-21T12:06:13.431Z,49.26
2018-07-21T12:07:13.415Z,47.75
2018-07-21T12:08:13.407Z,40.84
2018-07-21T12:09:13.397Z,44.46
2018-07-21T12:10:13.399Z,40.62
2018-07-21T12:11:13.376Z,39.03
2018-07-21T12:12:13.365Z,40.00
2018-07-21T12:13:13.358Z,43.33
2018-07-21T12:14:13.366Z,43.51
2018-07-21T12:15:13.364Z,39.09
2018-07-21T12:16:13.348Z,41.16
2018-07-21T12:17:13.343Z,37.92
2018-07-21T12:18:13.301Z,38.58
2018-07-21T12:19:13.297Z,39.70
2018-07-21T12:20:13.320Z,37.15
2018-07-21T12:21:13.280Z,40.98
2018-07-21T12:22:13.262Z,41.96
2018-07-21T12:23:13.260Z,40.58
2018-07-21T12:24:13.263Z,37.52
2018-07-21T12:25:13.258Z,38.86
2018-07-21T12:26:13.232Z,38.76
2018-07-21T12:27:13.220Z,40.72
2018-07-21T12:28:13.209Z,36.77
2018-07-21T12:29:13.202Z,39.62
2018-07-21T12:30:13.221Z,35.90
2018-07-21T12:31:13.179Z,33.70
2018-07-21T12:32:13.170Z,31.68
2018-07-21T12:33:13.165Z,32.12
2018-07-21T12:34:13.211Z,31.42
2018-07-21T12:35:13.163Z,29.53
2018-07-21T12:36:13.137Z,33.37
2018-07-21T12:37:13.129Z,28.03
2018-07-21T12:38:13.123Z,27.04
2018-07-21T12:39:13.124Z,26.73
2018-07-21T12:40:13.163Z,26.03
2018-07-21T12:41:13.098Z,25.54
2018-07-21T12:42:13.100Z,26.40
2018-07-21T12:43:13.087Z,25.92
2018-07-21T12:44:13.070Z,26.61
2018-07-21T12:45:13.086Z,25.66
2018-07-21T12:46:13.096Z,30.67
2018-07-21T12:47:13.059Z,28.31
2018-07-21T12:48:13.042Z,25.76
2018-07-21T12:49:13.036Z,26.37
2018-07-21T12:50:13.045Z,27.92
2018-07-21T12:51:13.017Z,26.66
2018-07-21T12:52:13.014Z,29.92